sensor_id;sensor_type;location;lat;lon;timestamp;P1;durP1;ratioP1;P2;durP2;ratioP2
18576;SDS011;9418;52.694;13.294;2023-02-28T00:00:36;5.33;;;2.73;;
18576;SDS011;9418;52.694;13.294;2023-02-28T00:03:03;2.60;;;2.40;;
18576;SDS011;9418;52.694;13.294;2023-02-28T00:05:30;3.00;;;2.67;;
18576;SDS011;9418;52.694;13.294;2023-02-28T00:07:57;2.90;;;2.70;;
18576;SDS011;9418;52.694;13.294;2023-02-28T00:10:25;2.60;;;2.40;;
18576;SDS011;9418;52.694;13.294;2023-02-28T00:12:53;2.90;;;2.80;;
18576;SDS011;9418;52.694;13.294;2023-02-28T00:15:23;5.90;;;3.00;;
18576;SDS011;9418;52.694;13.294;2023-02-28T00:17:50;3.43;;;3.13;;
18576;SDS011;9418;52.694;13.294;2023-02-28T00:20:17;2.73;;;2.53;;
18576;SDS011;9418;52.694;13.294;2023-02-28T00:22:45;4.83;;;3.47;;
18576;SDS011;9418;52.694;13.294;2023-02-28T00:25:15;3.30;;;3.00;;
18576;SDS011;9418;52.694;13.294;2023-02-28T00:27:43;4.13;;;3.13;;
18576;SDS011;9418;52.694;13.294;2023-02-28T00:30:10;3.67;;;3.37;;
18576;SDS011;9418;52.694;13.294;2023-02-28T00:32:41;4.00;;;3.10;;
18576;SDS011;9418;52.694;13.294;2023-02-28T00:35:08;4.17;;;3.30;;
18576;SDS011;9418;52.694;13.294;2023-02-28T00:37:35;3.93;;;2.80;;
18576;SDS011;9418;52.694;13.294;2023-02-28T00:40:02;3.80;;;3.07;;
18576;SDS011;9418;52.694;13.294;2023-02-28T00:42:31;3.47;;;3.17;;
18576;SDS011;9418;52.694;13.294;2023-02-28T00:44:57;4.27;;;3.27;;
18576;SDS011;9418;52.694;13.294;2023-02-28T00:47:24;3.30;;;3.10;;
18576;SDS011;9418;52.694;13.294;2023-02-28T00:49:52;3.90;;;3.50;;
18576;SDS011;9418;52.694;13.294;2023-02-28T00:52:19;3.70;;;3.40;;
18576;SDS011;9418;52.694;13.294;2023-02-28T00:54:46;4.57;;;3.00;;
18576;SDS011;9418;52.694;13.294;2023-02-28T00:57:13;3.50;;;3.20;;
18576;SDS011;9418;52.694;13.294;2023-02-28T00:59:39;4.60;;;3.50;;
18576;SDS011;9418;52.694;13.294;2023-02-28T01:02:06;3.70;;;3.40;;
18576;SDS011;9418;52.694;13.294;2023-02-28T01:04:32;3.77;;;3.40;;
18576;SDS011;9418;52.694;13.294;2023-02-28T01:07:01;3.10;;;2.87;;
18576;SDS011;9418;52.694;13.294;2023-02-28T01:09:28;3.27;;;2.97;;
18576;SDS011;9418;52.694;13.294;2023-02-28T01:11:55;3.93;;;3.50;;
18576;SDS011;9418;52.694;13.294;2023-02-28T01:14:22;5.60;;;3.13;;
18576;SDS011;9418;52.694;13.294;2023-02-28T01:16:49;3.80;;;3.33;;
18576;SDS011;9418;52.694;13.294;2023-02-28T01:19:16;3.87;;;3.57;;
18576;SDS011;9418;52.694;13.294;2023-02-28T01:21:43;4.07;;;3.70;;
18576;SDS011;9418;52.694;13.294;2023-02-28T01:24:11;3.60;;;3.30;;
18576;SDS011;9418;52.694;13.294;2023-02-28T01:26:37;3.93;;;3.23;;
18576;SDS011;9418;52.694;13.294;2023-02-28T01:29:04;5.13;;;3.00;;
18576;SDS011;9418;52.694;13.294;2023-02-28T01:31:30;4.90;;;3.30;;
18576;SDS011;9418;52.694;13.294;2023-02-28T01:33:57;3.40;;;3.13;;
18576;SDS011;9418;52.694;13.294;2023-02-28T01:36:24;3.47;;;3.17;;
18576;SDS011;9418;52.694;13.294;2023-02-28T01:38:51;3.80;;;3.47;;
18576;SDS011;9418;52.694;13.294;2023-02-28T01:41:20;3.27;;;3.07;;
18576;SDS011;9418;52.694;13.294;2023-02-28T01:43:53;7.97;;;3.93;;
18576;SDS011;9418;52.694;13.294;2023-02-28T01:46:29;5.80;;;3.93;;
18576;SDS011;9418;52.694;13.294;2023-02-28T01:48:58;3.87;;;3.57;;
18576;SDS011;9418;52.694;13.294;2023-02-28T01:51:29;3.73;;;3.33;;
18576;SDS011;9418;52.694;13.294;2023-02-28T01:54:00;4.63;;;3.73;;
18576;SDS011;9418;52.694;13.294;2023-02-28T01:56:32;3.90;;;3.60;;
18576;SDS011;9418;52.694;13.294;2023-02-28T01:59:02;4.93;;;3.87;;
18576;SDS011;9418;52.694;13.294;2023-02-28T02:01:29;3.53;;;3.20;;
18576;SDS011;9418;52.694;13.294;2023-02-28T02:03:57;4.40;;;3.70;;
18576;SDS011;9418;52.694;13.294;2023-02-28T02:06:27;5.43;;;3.60;;
18576;SDS011;9418;52.694;13.294;2023-02-28T02:08:57;3.90;;;3.60;;
18576;SDS011;9418;52.694;13.294;2023-02-28T02:11:24;6.20;;;3.63;;
18576;SDS011;9418;52.694;13.294;2023-02-28T02:14:03;3.80;;;3.50;;
18576;SDS011;9418;52.694;13.294;2023-02-28T02:16:41;4.73;;;3.30;;
18576;SDS011;9418;52.694;13.294;2023-02-28T02:19:26;5.20;;;3.80;;
18576;SDS011;9418;52.694;13.294;2023-02-28T02:25:16;3.50;;;3.30;;
18576;SDS011;9418;52.694;13.294;2023-02-28T02:27:59;4.07;;;3.67;;
18576;SDS011;9418;52.694;13.294;2023-02-28T02:30:48;3.70;;;3.40;;
18576;SDS011;9418;52.694;13.294;2023-02-28T02:33:41;3.23;;;3.00;;
18576;SDS011;9418;52.694;13.294;2023-02-28T02:36:27;3.53;;;3.17;;
18576;SDS011;9418;52.694;13.294;2023-02-28T02:39:00;3.67;;;3.33;;
18576;SDS011;9418;52.694;13.294;2023-02-28T02:41:33;5.10;;;4.00;;
18576;SDS011;9418;52.694;13.294;2023-02-28T02:44:03;4.07;;;3.77;;
18576;SDS011;9418;52.694;13.294;2023-02-28T02:46:37;3.43;;;2.97;;
18576;SDS011;9418;52.694;13.294;2023-02-28T02:49:09;3.53;;;3.23;;
18576;SDS011;9418;52.694;13.294;2023-02-28T02:51:40;5.97;;;4.17;;
18576;SDS011;9418;52.694;13.294;2023-02-28T02:54:09;7.33;;;5.70;;
18576;SDS011;9418;52.694;13.294;2023-02-28T02:56:40;8.00;;;5.87;;
18576;SDS011;9418;52.694;13.294;2023-02-28T02:59:10;12.17;;;8.67;;
18576;SDS011;9418;52.694;13.294;2023-02-28T03:01:39;13.93;;;5.93;;
18576;SDS011;9418;52.694;13.294;2023-02-28T03:04:09;9.37;;;5.60;;
18576;SDS011;9418;52.694;13.294;2023-02-28T03:06:39;7.40;;;6.13;;
18576;SDS011;9418;52.694;13.294;2023-02-28T03:09:05;7.20;;;5.30;;
18576;SDS011;9418;52.694;13.294;2023-02-28T03:11:32;10.50;;;6.60;;
18576;SDS011;9418;52.694;13.294;2023-02-28T03:14:08;9.87;;;6.60;;
18576;SDS011;9418;52.694;13.294;2023-02-28T03:16:54;7.27;;;5.80;;
18576;SDS011;9418;52.694;13.294;2023-02-28T03:19:36;12.50;;;8.27;;
18576;SDS011;9418;52.694;13.294;2023-02-28T03:22:14;22.10;;;11.97;;
18576;SDS011;9418;52.694;13.294;2023-02-28T03:25:00;21.50;;;9.50;;
18576;SDS011;9418;52.694;13.294;2023-02-28T03:27:34;11.27;;;8.10;;
18576;SDS011;9418;52.694;13.294;2023-02-28T03:30:06;14.50;;;8.37;;
18576;SDS011;9418;52.694;13.294;2023-02-28T03:32:38;16.43;;;10.27;;
18576;SDS011;9418;52.694;13.294;2023-02-28T03:35:13;13.20;;;8.90;;
18576;SDS011;9418;52.694;13.294;2023-02-28T03:37:46;13.83;;;9.03;;
18576;SDS011;9418;52.694;13.294;2023-02-28T03:40:17;12.83;;;7.67;;
18576;SDS011;9418;52.694;13.294;2023-02-28T03:42:48;11.83;;;7.80;;
18576;SDS011;9418;52.694;13.294;2023-02-28T03:45:20;9.30;;;7.03;;
18576;SDS011;9418;52.694;13.294;2023-02-28T03:47:51;9.30;;;5.30;;
18576;SDS011;9418;52.694;13.294;2023-02-28T03:50:22;7.53;;;5.50;;
18576;SDS011;9418;52.694;13.294;2023-02-28T03:52:53;13.73;;;9.20;;
18576;SDS011;9418;52.694;13.294;2023-02-28T03:55:26;13.97;;;9.80;;
18576;SDS011;9418;52.694;13.294;2023-02-28T03:57:56;19.67;;;9.63;;
18576;SDS011;9418;52.694;13.294;2023-02-28T04:00:28;18.30;;;8.90;;
18576;SDS011;9418;52.694;13.294;2023-02-28T04:02:57;14.73;;;10.17;;
18576;SDS011;9418;52.694;13.294;2023-02-28T04:05:25;13.23;;;7.83;;
18576;SDS011;9418;52.694;13.294;2023-02-28T04:07:53;6.67;;;5.63;;
18576;SDS011;9418;52.694;13.294;2023-02-28T04:10:20;7.90;;;4.77;;
18576;SDS011;9418;52.694;13.294;2023-02-28T04:12:46;6.53;;;5.50;;
18576;SDS011;9418;52.694;13.294;2023-02-28T04:15:13;7.00;;;5.80;;
18576;SDS011;9418;52.694;13.294;2023-02-28T04:17:40;6.17;;;5.47;;
18576;SDS011;9418;52.694;13.294;2023-02-28T04:20:07;13.20;;;8.10;;
18576;SDS011;9418;52.694;13.294;2023-02-28T04:22:36;13.70;;;9.47;;
18576;SDS011;9418;52.694;13.294;2023-02-28T04:25:03;12.30;;;8.90;;
18576;SDS011;9418;52.694;13.294;2023-02-28T04:27:31;13.77;;;8.73;;
18576;SDS011;9418;52.694;13.294;2023-02-28T04:29:58;15.60;;;10.67;;
18576;SDS011;9418;52.694;13.294;2023-02-28T04:32:24;13.87;;;8.73;;
18576;SDS011;9418;52.694;13.294;2023-02-28T04:34:51;14.53;;;8.73;;
18576;SDS011;9418;52.694;13.294;2023-02-28T04:37:17;16.83;;;11.17;;
18576;SDS011;9418;52.694;13.294;2023-02-28T04:39:45;7.20;;;6.50;;
18576;SDS011;9418;52.694;13.294;2023-02-28T04:42:12;6.80;;;5.07;;
18576;SDS011;9418;52.694;13.294;2023-02-28T04:44:39;7.03;;;4.30;;
18576;SDS011;9418;52.694;13.294;2023-02-28T04:47:06;5.87;;;3.93;;
18576;SDS011;9418;52.694;13.294;2023-02-28T04:49:32;4.40;;;4.00;;
18576;SDS011;9418;52.694;13.294;2023-02-28T04:51:59;6.90;;;3.67;;
18576;SDS011;9418;52.694;13.294;2023-02-28T04:54:26;5.17;;;4.30;;
18576;SDS011;9418;52.694;13.294;2023-02-28T04:56:54;4.17;;;3.77;;
18576;SDS011;9418;52.694;13.294;2023-02-28T04:59:21;4.50;;;4.10;;
18576;SDS011;9418;52.694;13.294;2023-02-28T05:01:48;3.60;;;3.30;;
18576;SDS011;9418;52.694;13.294;2023-02-28T05:04:15;3.93;;;3.63;;
18576;SDS011;9418;52.694;13.294;2023-02-28T05:06:42;4.57;;;4.00;;
18576;SDS011;9418;52.694;13.294;2023-02-28T05:09:09;3.80;;;3.53;;
18576;SDS011;9418;52.694;13.294;2023-02-28T05:11:38;4.27;;;3.87;;
18576;SDS011;9418;52.694;13.294;2023-02-28T05:14:09;5.27;;;3.73;;
18576;SDS011;9418;52.694;13.294;2023-02-28T05:16:37;6.47;;;4.53;;
18576;SDS011;9418;52.694;13.294;2023-02-28T05:19:04;4.37;;;3.93;;
18576;SDS011;9418;52.694;13.294;2023-02-28T05:21:31;4.00;;;3.60;;
18576;SDS011;9418;52.694;13.294;2023-02-28T05:24:00;4.10;;;3.63;;
18576;SDS011;9418;52.694;13.294;2023-02-28T05:26:28;5.20;;;3.97;;
18576;SDS011;9418;52.694;13.294;2023-02-28T05:28:55;4.53;;;3.90;;
18576;SDS011;9418;52.694;13.294;2023-02-28T05:31:23;4.70;;;3.57;;
18576;SDS011;9418;52.694;13.294;2023-02-28T05:33:50;5.07;;;4.27;;
18576;SDS011;9418;52.694;13.294;2023-02-28T05:36:17;6.93;;;4.37;;
18576;SDS011;9418;52.694;13.294;2023-02-28T05:38:45;6.80;;;4.90;;
18576;SDS011;9418;52.694;13.294;2023-02-28T05:41:12;8.17;;;4.53;;
18576;SDS011;9418;52.694;13.294;2023-02-28T05:43:39;4.93;;;3.70;;
18576;SDS011;9418;52.694;13.294;2023-02-28T05:46:05;4.97;;;4.10;;
18576;SDS011;9418;52.694;13.294;2023-02-28T05:48:35;13.23;;;5.90;;
18576;SDS011;9418;52.694;13.294;2023-02-28T05:51:04;6.53;;;4.90;;
18576;SDS011;9418;52.694;13.294;2023-02-28T05:53:31;7.83;;;5.97;;
18576;SDS011;9418;52.694;13.294;2023-02-28T05:55:58;13.27;;;5.40;;
18576;SDS011;9418;52.694;13.294;2023-02-28T05:58:25;115.93;;;62.77;;
18576;SDS011;9418;52.694;13.294;2023-02-28T06:00:55;12.33;;;9.60;;
18576;SDS011;9418;52.694;13.294;2023-02-28T06:03:22;39.40;;;25.70;;
18576;SDS011;9418;52.694;13.294;2023-02-28T06:05:49;50.07;;;34.00;;
18576;SDS011;9418;52.694;13.294;2023-02-28T06:08:16;36.40;;;25.80;;
18576;SDS011;9418;52.694;13.294;2023-02-28T06:10:43;40.93;;;27.13;;
18576;SDS011;9418;52.694;13.294;2023-02-28T06:13:09;30.17;;;21.50;;
18576;SDS011;9418;52.694;13.294;2023-02-28T06:15:37;88.00;;;45.37;;
18576;SDS011;9418;52.694;13.294;2023-02-28T06:18:04;44.77;;;24.93;;
18576;SDS011;9418;52.694;13.294;2023-02-28T06:20:30;78.20;;;36.57;;
18576;SDS011;9418;52.694;13.294;2023-02-28T06:22:59;78.47;;;41.00;;
18576;SDS011;9418;52.694;13.294;2023-02-28T06:25:26;37.70;;;21.17;;
18576;SDS011;9418;52.694;13.294;2023-02-28T06:27:54;12.50;;;8.30;;
18576;SDS011;9418;52.694;13.294;2023-02-28T06:30:21;7.33;;;6.10;;
18576;SDS011;9418;52.694;13.294;2023-02-28T06:32:50;7.17;;;5.70;;
18576;SDS011;9418;52.694;13.294;2023-02-28T06:35:16;7.97;;;6.37;;
18576;SDS011;9418;52.694;13.294;2023-02-28T06:37:43;7.17;;;6.07;;
18576;SDS011;9418;52.694;13.294;2023-02-28T06:40:12;7.97;;;5.60;;
18576;SDS011;9418;52.694;13.294;2023-02-28T06:42:38;7.83;;;6.37;;
18576;SDS011;9418;52.694;13.294;2023-02-28T06:45:06;5.87;;;5.37;;
18576;SDS011;9418;52.694;13.294;2023-02-28T06:47:34;7.13;;;5.07;;
18576;SDS011;9418;52.694;13.294;2023-02-28T06:50:01;5.97;;;5.47;;
18576;SDS011;9418;52.694;13.294;2023-02-28T06:52:29;6.30;;;5.37;;
18576;SDS011;9418;52.694;13.294;2023-02-28T06:54:56;5.20;;;4.70;;
18576;SDS011;9418;52.694;13.294;2023-02-28T06:57:28;6.80;;;5.20;;
18576;SDS011;9418;52.694;13.294;2023-02-28T06:59:57;6.10;;;4.93;;
18576;SDS011;9418;52.694;13.294;2023-02-28T07:02:24;6.47;;;5.13;;
18576;SDS011;9418;52.694;13.294;2023-02-28T07:04:50;5.40;;;4.87;;
18576;SDS011;9418;52.694;13.294;2023-02-28T07:07:17;5.77;;;4.53;;
18576;SDS011;9418;52.694;13.294;2023-02-28T07:09:43;6.00;;;5.43;;
18576;SDS011;9418;52.694;13.294;2023-02-28T07:12:10;6.10;;;5.07;;
18576;SDS011;9418;52.694;13.294;2023-02-28T07:14:38;8.13;;;5.90;;
18576;SDS011;9418;52.694;13.294;2023-02-28T07:17:06;7.27;;;4.77;;
18576;SDS011;9418;52.694;13.294;2023-02-28T07:19:33;7.43;;;5.97;;
18576;SDS011;9418;52.694;13.294;2023-02-28T07:21:59;7.23;;;6.00;;
18576;SDS011;9418;52.694;13.294;2023-02-28T07:24:27;11.13;;;7.00;;
18576;SDS011;9418;52.694;13.294;2023-02-28T07:26:54;7.90;;;5.70;;
18576;SDS011;9418;52.694;13.294;2023-02-28T07:29:21;5.80;;;5.20;;
18576;SDS011;9418;52.694;13.294;2023-02-28T07:31:49;6.20;;;5.60;;
18576;SDS011;9418;52.694;13.294;2023-02-28T07:34:18;5.53;;;5.03;;
18576;SDS011;9418;52.694;13.294;2023-02-28T07:36:44;6.33;;;5.70;;
18576;SDS011;9418;52.694;13.294;2023-02-28T07:39:11;7.50;;;5.20;;
18576;SDS011;9418;52.694;13.294;2023-02-28T07:41:37;6.27;;;5.63;;
18576;SDS011;9418;52.694;13.294;2023-02-28T07:44:08;9.43;;;6.13;;
18576;SDS011;9418;52.694;13.294;2023-02-28T07:46:35;8.30;;;6.20;;
18576;SDS011;9418;52.694;13.294;2023-02-28T07:49:03;8.53;;;6.90;;
18576;SDS011;9418;52.694;13.294;2023-02-28T07:51:31;7.70;;;5.97;;
18576;SDS011;9418;52.694;13.294;2023-02-28T07:53:58;10.97;;;7.23;;
18576;SDS011;9418;52.694;13.294;2023-02-28T07:56:24;7.87;;;6.70;;
18576;SDS011;9418;52.694;13.294;2023-02-28T07:58:51;8.00;;;5.70;;
18576;SDS011;9418;52.694;13.294;2023-02-28T08:01:17;6.13;;;5.33;;
18576;SDS011;9418;52.694;13.294;2023-02-28T08:03:44;6.63;;;5.90;;
18576;SDS011;9418;52.694;13.294;2023-02-28T08:06:16;6.03;;;4.90;;
18576;SDS011;9418;52.694;13.294;2023-02-28T08:08:44;8.80;;;5.40;;
18576;SDS011;9418;52.694;13.294;2023-02-28T08:11:11;11.67;;;5.27;;
18576;SDS011;9418;52.694;13.294;2023-02-28T08:13:38;7.20;;;5.43;;
18576;SDS011;9418;52.694;13.294;2023-02-28T08:16:05;5.43;;;4.93;;
18576;SDS011;9418;52.694;13.294;2023-02-28T08:18:32;9.23;;;6.30;;
18576;SDS011;9418;52.694;13.294;2023-02-28T08:20:59;7.03;;;6.27;;
18576;SDS011;9418;52.694;13.294;2023-02-28T08:23:26;9.87;;;5.70;;
18576;SDS011;9418;52.694;13.294;2023-02-28T08:25:53;7.17;;;6.43;;
18576;SDS011;9418;52.694;13.294;2023-02-28T08:28:20;7.40;;;5.97;;
18576;SDS011;9418;52.694;13.294;2023-02-28T08:30:47;8.70;;;6.87;;
18576;SDS011;9418;52.694;13.294;2023-02-28T08:33:13;11.20;;;6.10;;
18576;SDS011;9418;52.694;13.294;2023-02-28T08:35:40;7.63;;;6.83;;
18576;SDS011;9418;52.694;13.294;2023-02-28T08:38:07;9.37;;;5.00;;
18576;SDS011;9418;52.694;13.294;2023-02-28T08:40:34;10.17;;;5.57;;
18576;SDS011;9418;52.694;13.294;2023-02-28T08:43:01;9.17;;;5.87;;
18576;SDS011;9418;52.694;13.294;2023-02-28T08:45:28;8.90;;;5.70;;
18576;SDS011;9418;52.694;13.294;2023-02-28T08:47:54;9.67;;;6.20;;
18576;SDS011;9418;52.694;13.294;2023-02-28T08:50:21;9.20;;;5.90;;
18576;SDS011;9418;52.694;13.294;2023-02-28T08:52:48;14.60;;;6.13;;
18576;SDS011;9418;52.694;13.294;2023-02-28T08:55:14;11.93;;;5.13;;
18576;SDS011;9418;52.694;13.294;2023-02-28T08:57:42;10.63;;;4.87;;
18576;SDS011;9418;52.694;13.294;2023-02-28T09:00:09;5.87;;;4.80;;
18576;SDS011;9418;52.694;13.294;2023-02-28T09:02:38;5.40;;;4.60;;
18576;SDS011;9418;52.694;13.294;2023-02-28T09:05:05;7.73;;;4.90;;
18576;SDS011;9418;52.694;13.294;2023-02-28T09:07:32;8.07;;;4.57;;
18576;SDS011;9418;52.694;13.294;2023-02-28T09:09:59;4.33;;;3.30;;
18576;SDS011;9418;52.694;13.294;2023-02-28T09:12:26;2.00;;;1.83;;
18576;SDS011;9418;52.694;13.294;2023-02-28T09:14:55;2.17;;;1.97;;
18576;SDS011;9418;52.694;13.294;2023-02-28T09:17:21;2.87;;;2.27;;
18576;SDS011;9418;52.694;13.294;2023-02-28T09:19:49;2.60;;;2.30;;
18576;SDS011;9418;52.694;13.294;2023-02-28T09:22:15;3.23;;;2.10;;
18576;SDS011;9418;52.694;13.294;2023-02-28T09:24:42;2.70;;;2.00;;
18576;SDS011;9418;52.694;13.294;2023-02-28T09:27:10;2.13;;;2.00;;
18576;SDS011;9418;52.694;13.294;2023-02-28T09:29:36;1.83;;;1.77;;
18576;SDS011;9418;52.694;13.294;2023-02-28T09:32:05;2.07;;;1.90;;
18576;SDS011;9418;52.694;13.294;2023-02-28T09:34:32;4.37;;;4.00;;
18576;SDS011;9418;52.694;13.294;2023-02-28T09:36:59;4.43;;;4.10;;
18576;SDS011;9418;52.694;13.294;2023-02-28T09:39:25;2.30;;;1.70;;
18576;SDS011;9418;52.694;13.294;2023-02-28T09:41:54;3.07;;;2.87;;
18576;SDS011;9418;52.694;13.294;2023-02-28T09:44:25;2.70;;;2.50;;
18576;SDS011;9418;52.694;13.294;2023-02-28T09:46:55;2.93;;;2.33;;
18576;SDS011;9418;52.694;13.294;2023-02-28T09:49:28;2.97;;;1.97;;
18576;SDS011;9418;52.694;13.294;2023-02-28T09:52:00;1.97;;;1.87;;
18576;SDS011;9418;52.694;13.294;2023-02-28T09:54:31;6.40;;;2.10;;
18576;SDS011;9418;52.694;13.294;2023-02-28T09:56:59;1.97;;;1.47;;
18576;SDS011;9418;52.694;13.294;2023-02-28T09:59:33;1.83;;;1.70;;
18576;SDS011;9418;52.694;13.294;2023-02-28T10:02:14;1.80;;;1.70;;
18576;SDS011;9418;52.694;13.294;2023-02-28T10:04:54;2.70;;;2.17;;
18576;SDS011;9418;52.694;13.294;2023-02-28T10:07:31;2.30;;;1.80;;
18576;SDS011;9418;52.694;13.294;2023-02-28T10:10:14;4.33;;;3.97;;
18576;SDS011;9418;52.694;13.294;2023-02-28T10:12:46;2.10;;;1.87;;
18576;SDS011;9418;52.694;13.294;2023-02-28T10:15:14;2.27;;;1.90;;
18576;SDS011;9418;52.694;13.294;2023-02-28T10:17:43;2.13;;;2.03;;
18576;SDS011;9418;52.694;13.294;2023-02-28T10:20:15;2.07;;;1.90;;
18576;SDS011;9418;52.694;13.294;2023-02-28T10:22:49;1.80;;;1.70;;
18576;SDS011;9418;52.694;13.294;2023-02-28T10:25:19;1.93;;;1.83;;
18576;SDS011;9418;52.694;13.294;2023-02-28T10:27:48;1.70;;;1.60;;
18576;SDS011;9418;52.694;13.294;2023-02-28T10:30:16;3.83;;;2.33;;
18576;SDS011;9418;52.694;13.294;2023-02-28T10:32:44;1.80;;;1.70;;
18576;SDS011;9418;52.694;13.294;2023-02-28T10:35:18;5.53;;;2.30;;
18576;SDS011;9418;52.694;13.294;2023-02-28T10:37:47;13.87;;;4.40;;
18576;SDS011;9418;52.694;13.294;2023-02-28T10:40:25;4.47;;;2.77;;
18576;SDS011;9418;52.694;13.294;2023-02-28T10:42:56;5.53;;;4.70;;
18576;SDS011;9418;52.694;13.294;2023-02-28T10:45:23;2.40;;;2.13;;
18576;SDS011;9418;52.694;13.294;2023-02-28T10:47:52;2.17;;;1.80;;
18576;SDS011;9418;52.694;13.294;2023-02-28T10:50:30;2.40;;;2.20;;
18576;SDS011;9418;52.694;13.294;2023-02-28T10:55:58;3.27;;;2.30;;
18576;SDS011;9418;52.694;13.294;2023-02-28T10:58:26;3.90;;;2.97;;
18576;SDS011;9418;52.694;13.294;2023-02-28T11:00:54;3.17;;;2.33;;
18576;SDS011;9418;52.694;13.294;2023-02-28T11:03:28;2.10;;;1.90;;
18576;SDS011;9418;52.694;13.294;2023-02-28T11:05:57;2.20;;;1.67;;
18576;SDS011;9418;52.694;13.294;2023-02-28T11:08:29;2.60;;;2.20;;
18576;SDS011;9418;52.694;13.294;2023-02-28T11:10:57;1.73;;;1.70;;
18576;SDS011;9418;52.694;13.294;2023-02-28T11:13:29;2.10;;;2.00;;
18576;SDS011;9418;52.694;13.294;2023-02-28T11:15:59;2.10;;;2.00;;
18576;SDS011;9418;52.694;13.294;2023-02-28T11:18:29;1.67;;;1.57;;
18576;SDS011;9418;52.694;13.294;2023-02-28T11:20:58;2.20;;;2.00;;
18576;SDS011;9418;52.694;13.294;2023-02-28T11:23:27;2.40;;;2.20;;
18576;SDS011;9418;52.694;13.294;2023-02-28T11:25:57;2.77;;;2.27;;
18576;SDS011;9418;52.694;13.294;2023-02-28T11:28:26;2.17;;;1.83;;
18576;SDS011;9418;52.694;13.294;2023-02-28T11:30:59;8.90;;;3.00;;
18576;SDS011;9418;52.694;13.294;2023-02-28T11:33:28;2.50;;;2.40;;
18576;SDS011;9418;52.694;13.294;2023-02-28T11:35:57;3.00;;;2.70;;
18576;SDS011;9418;52.694;13.294;2023-02-28T11:38:27;2.20;;;2.10;;
18576;SDS011;9418;52.694;13.294;2023-02-28T11:41:01;2.47;;;1.73;;
18576;SDS011;9418;52.694;13.294;2023-02-28T11:43:44;1.90;;;1.80;;
18576;SDS011;9418;52.694;13.294;2023-02-28T11:46:24;2.00;;;1.90;;
18576;SDS011;9418;52.694;13.294;2023-02-28T11:48:58;2.47;;;2.30;;
18576;SDS011;9418;52.694;13.294;2023-02-28T11:51:33;2.10;;;1.90;;
18576;SDS011;9418;52.694;13.294;2023-02-28T11:54:11;2.30;;;2.03;;
18576;SDS011;9418;52.694;13.294;2023-02-28T11:56:51;2.07;;;1.97;;
18576;SDS011;9418;52.694;13.294;2023-02-28T11:59:27;1.97;;;1.83;;
18576;SDS011;9418;52.694;13.294;2023-02-28T12:02:06;3.73;;;3.00;;
18576;SDS011;9418;52.694;13.294;2023-02-28T12:04:58;3.63;;;3.30;;
18576;SDS011;9418;52.694;13.294;2023-02-28T12:07:37;4.47;;;4.07;;
18576;SDS011;9418;52.694;13.294;2023-02-28T12:10:18;9.80;;;5.73;;
18576;SDS011;9418;52.694;13.294;2023-02-28T12:12:49;2.37;;;2.17;;
18576;SDS011;9418;52.694;13.294;2023-02-28T12:15:34;3.17;;;2.97;;
18576;SDS011;9418;52.694;13.294;2023-02-28T12:18:15;2.33;;;2.23;;
18576;SDS011;9418;52.694;13.294;2023-02-28T12:20:53;2.40;;;2.30;;
18576;SDS011;9418;52.694;13.294;2023-02-28T12:23:42;2.30;;;2.17;;
18576;SDS011;9418;52.694;13.294;2023-02-28T12:26:19;22.20;;;14.60;;
18576;SDS011;9418;52.694;13.294;2023-02-28T12:28:57;3.37;;;2.43;;
18576;SDS011;9418;52.694;13.294;2023-02-28T12:31:29;3.07;;;2.00;;
18576;SDS011;9418;52.694;13.294;2023-02-28T12:34:01;2.90;;;2.20;;
18576;SDS011;9418;52.694;13.294;2023-02-28T12:36:31;21.80;;;13.17;;
18576;SDS011;9418;52.694;13.294;2023-02-28T12:39:04;2.37;;;2.17;;
18576;SDS011;9418;52.694;13.294;2023-02-28T12:41:39;1.83;;;1.73;;
18576;SDS011;9418;52.694;13.294;2023-02-28T12:44:09;2.77;;;2.07;;
18576;SDS011;9418;52.694;13.294;2023-02-28T12:46:41;2.37;;;2.10;;
18576;SDS011;9418;52.694;13.294;2023-02-28T12:49:10;3.43;;;2.53;;
18576;SDS011;9418;52.694;13.294;2023-02-28T12:51:41;2.20;;;2.00;;
18576;SDS011;9418;52.694;13.294;2023-02-28T12:54:14;1.60;;;1.50;;
18576;SDS011;9418;52.694;13.294;2023-02-28T12:56:48;5.27;;;4.77;;
18576;SDS011;9418;52.694;13.294;2023-02-28T12:59:22;7.90;;;4.47;;
18576;SDS011;9418;52.694;13.294;2023-02-28T13:02:02;4.60;;;3.90;;
18576;SDS011;9418;52.694;13.294;2023-02-28T13:04:52;3.43;;;2.23;;
18576;SDS011;9418;52.694;13.294;2023-02-28T13:10:23;4.93;;;3.20;;
18576;SDS011;9418;52.694;13.294;2023-02-28T13:12:51;2.20;;;2.10;;
18576;SDS011;9418;52.694;13.294;2023-02-28T13:15:22;3.03;;;2.40;;
18576;SDS011;9418;52.694;13.294;2023-02-28T13:17:51;3.50;;;2.80;;
18576;SDS011;9418;52.694;13.294;2023-02-28T13:20:19;2.27;;;2.17;;
18576;SDS011;9418;52.694;13.294;2023-02-28T13:22:48;4.70;;;2.63;;
18576;SDS011;9418;52.694;13.294;2023-02-28T13:31:33;2.20;;;2.00;;
18576;SDS011;9418;52.694;13.294;2023-02-28T13:34:38;1.93;;;1.83;;
18576;SDS011;9418;52.694;13.294;2023-02-28T13:43:01;3.07;;;2.87;;
18576;SDS011;9418;52.694;13.294;2023-02-28T13:45:28;3.83;;;3.13;;
18576;SDS011;9418;52.694;13.294;2023-02-28T13:48:03;3.53;;;2.40;;
18576;SDS011;9418;52.694;13.294;2023-02-28T13:50:40;7.80;;;6.97;;
18576;SDS011;9418;52.694;13.294;2023-02-28T13:53:24;2.83;;;2.63;;
18576;SDS011;9418;52.694;13.294;2023-02-28T13:56:29;4.23;;;2.47;;
18576;SDS011;9418;52.694;13.294;2023-02-28T13:59:06;2.73;;;2.20;;
18576;SDS011;9418;52.694;13.294;2023-02-28T14:01:51;2.03;;;1.83;;
18576;SDS011;9418;52.694;13.294;2023-02-28T14:04:43;3.80;;;2.07;;
18576;SDS011;9418;52.694;13.294;2023-02-28T14:07:16;19.90;;;6.40;;
18576;SDS011;9418;52.694;13.294;2023-02-28T14:09:48;7.70;;;3.80;;
18576;SDS011;9418;52.694;13.294;2023-02-28T14:15:28;8.63;;;3.57;;
18576;SDS011;9418;52.694;13.294;2023-02-28T14:18:05;3.40;;;2.57;;
18576;SDS011;9418;52.694;13.294;2023-02-28T14:20:43;5.87;;;2.77;;
18576;SDS011;9418;52.694;13.294;2023-02-28T14:23:12;3.40;;;2.10;;
18576;SDS011;9418;52.694;13.294;2023-02-28T14:25:46;7.83;;;3.90;;
18576;SDS011;9418;52.694;13.294;2023-02-28T14:28:19;2.60;;;2.13;;
18576;SDS011;9418;52.694;13.294;2023-02-28T14:30:52;3.63;;;2.70;;
18576;SDS011;9418;52.694;13.294;2023-02-28T14:33:35;4.17;;;2.87;;
18576;SDS011;9418;52.694;13.294;2023-02-28T14:36:22;5.60;;;2.90;;
18576;SDS011;9418;52.694;13.294;2023-02-28T14:38:52;2.40;;;2.20;;
18576;SDS011;9418;52.694;13.294;2023-02-28T14:41:22;5.53;;;5.00;;
18576;SDS011;9418;52.694;13.294;2023-02-28T14:43:51;2.20;;;2.03;;
18576;SDS011;9418;52.694;13.294;2023-02-28T14:46:20;4.67;;;3.70;;
18576;SDS011;9418;52.694;13.294;2023-02-28T14:48:48;3.73;;;2.93;;
18576;SDS011;9418;52.694;13.294;2023-02-28T14:51:19;2.83;;;2.63;;
18576;SDS011;9418;52.694;13.294;2023-02-28T14:53:50;2.63;;;2.43;;
18576;SDS011;9418;52.694;13.294;2023-02-28T14:56:22;2.53;;;2.33;;
18576;SDS011;9418;52.694;13.294;2023-02-28T14:58:52;2.70;;;2.50;;
18576;SDS011;9418;52.694;13.294;2023-02-28T15:01:21;3.57;;;2.80;;
18576;SDS011;9418;52.694;13.294;2023-02-28T15:03:50;2.90;;;2.70;;
18576;SDS011;9418;52.694;13.294;2023-02-28T15:06:23;3.30;;;3.00;;
18576;SDS011;9418;52.694;13.294;2023-02-28T15:11:39;2.60;;;2.40;;
18576;SDS011;9418;52.694;13.294;2023-02-28T15:14:07;4.47;;;2.70;;
18576;SDS011;9418;52.694;13.294;2023-02-28T15:16:39;5.17;;;3.20;;
18576;SDS011;9418;52.694;13.294;2023-02-28T15:19:12;3.53;;;3.23;;
18576;SDS011;9418;52.694;13.294;2023-02-28T15:21:44;3.27;;;2.97;;
18576;SDS011;9418;52.694;13.294;2023-02-28T15:24:17;5.63;;;3.90;;
18576;SDS011;9418;52.694;13.294;2023-02-28T15:26:49;3.90;;;3.23;;
18576;SDS011;9418;52.694;13.294;2023-02-28T15:29:20;3.87;;;3.50;;
18576;SDS011;9418;52.694;13.294;2023-02-28T15:31:49;3.40;;;2.93;;